Time;durP1;ratioP1;P1;durP2;ratioP2;P2;SDS_P1;SDS_P2;PMS_P1;PMS_P2;Temp;Humidity;BMP_temperature;BMP_pressure;BME280_temperature;BME280_humidity;BME280_pressure;Samples;Min_cycle;Max_cycle;Signal;HPM_P1;HPM_P2
2021/08/14 00:02:22;;;;;;;4.78;2.28;;;18.10;64.50;;;;;;5095794;28;20024;-85
2021/08/14 00:04:48;;;;;;;6.85;2.42;;;18.20;65.00;;;;;;5096274;28;20023;-87
2021/08/14 00:07:14;;;;;;;9.35;2.80;;;18.20;65.30;;;;;;5096100;28;20555;-86
2021/08/14 00:09:39;;;;;;;7.30;2.30;;;18.10;66.30;;;;;;5096078;28;20023;-87
2021/08/14 00:12:05;;;;;;;6.20;2.60;;;18.00;65.70;;;;;;5095247;28;20392;-86
2021/08/14 00:14:31;;;;;;;5.55;2.20;;;18.00;65.20;;;;;;5095282;28;20016;-87
2021/08/14 00:16:57;;;;;;;7.10;2.17;;;18.10;65.50;;;;;;5095819;28;20040;-86
2021/08/14 00:19:23;;;;;;;7.25;2.20;;;18.10;65.30;;;;;;5096022;28;20032;-86
2021/08/14 00:21:49;;;;;;;5.40;2.53;;;18.10;65.30;;;;;;5114053;28;20035;-88
2021/08/14 00:24:14;;;;;;;7.07;2.55;;;18.10;65.70;;;;;;5092932;28;20023;-87
2021/08/14 00:26:40;;;;;;;6.90;3.15;;;18.10;65.50;;;;;;5095516;28;20854;-87
2021/08/14 00:29:06;;;;;;;4.97;2.22;;;18.10;64.70;;;;;;5095667;28;20107;-87
2021/08/14 00:31:31;;;;;;;6.40;2.42;;;18.10;66.00;;;;;;5095713;28;20031;-86
2021/08/14 00:33:57;;;;;;;7.97;2.75;;;18.10;64.90;;;;;;5093959;28;20214;-87
2021/08/14 00:36:23;;;;;;;5.88;2.63;;;18.00;65.00;;;;;;5095470;28;20040;-86
2021/08/14 00:38:49;;;;;;;7.40;3.05;;;18.00;66.30;;;;;;5095314;28;20023;-86
2021/08/14 00:41:15;;;;;;;5.03;2.20;;;18.00;66.00;;;;;;5094715;28;20035;-86
2021/08/14 00:43:43;;;;;;;8.05;2.75;;;18.00;66.50;;;;;;5113326;28;20031;-88
2021/08/14 00:46:08;;;;;;;6.80;2.38;;;18.00;66.20;;;;;;5094826;28;20475;-84
2021/08/14 00:48:35;;;;;;;7.60;2.97;;;17.90;67.30;;;;;;5113465;28;20076;-85
2021/08/14 00:51:01;;;;;;;7.82;3.03;;;17.90;67.50;;;;;;5113476;28;20043;-86
2021/08/14 00:53:27;;;;;;;5.93;2.53;;;17.80;68.40;;;;;;5094415;28;20488;-85
2021/08/14 00:55:54;;;;;;;7.05;2.38;;;17.80;67.20;;;;;;5094735;28;20066;-85
2021/08/14 00:58:20;;;;;;;6.50;2.72;;;17.80;68.20;;;;;;5113563;28;20032;-85
2021/08/14 01:00:47;;;;;;;7.20;2.53;;;17.80;68.40;;;;;;5094520;28;20081;-85
2021/08/14 01:03:13;;;;;;;7.82;2.67;;;17.70;68.00;;;;;;5094421;28;20028;-85
2021/08/14 01:05:46;;;;;;;6.85;2.47;;;17.70;68.80;;;;;;5113156;28;20020;-85
2021/08/14 01:08:15;;;;;;;6.57;2.85;;;17.80;68.40;;;;;;5113214;28;20105;-86
2021/08/14 01:10:42;;;;;;;7.22;2.80;;;17.60;68.90;;;;;;5094907;28;20031;-86
2021/08/14 01:13:09;;;;;;;7.15;2.50;;;17.60;69.40;;;;;;5094323;28;20053;-86
2021/08/14 01:15:34;;;;;;;7.05;2.58;;;17.60;69.20;;;;;;5112902;28;20024;-86
2021/08/14 01:18:01;;;;;;;7.45;2.58;;;17.60;69.00;;;;;;5094088;28;20047;-85
2021/08/14 01:20:27;;;;;;;5.57;2.35;;;17.60;69.30;;;;;;5094705;28;20061;-85
2021/08/14 01:22:53;;;;;;;7.18;2.47;;;17.50;68.40;;;;;;5094756;28;20023;-83
2021/08/14 01:25:19;;;;;;;6.93;2.88;;;17.60;69.90;;;;;;5094097;28;20073;-83
2021/08/14 01:27:46;;;;;;;7.32;2.72;;;17.60;68.80;;;;;;5094117;28;20032;-83
2021/08/14 01:30:13;;;;;;;10.80;3.50;;;17.50;70.20;;;;;;5112720;28;20107;-83
2021/08/14 01:32:39;;;;;;;7.45;2.70;;;17.50;69.60;;;;;;5112697;28;20027;-87
2021/08/14 01:35:07;;;;;;;8.75;2.70;;;17.50;69.50;;;;;;5112802;28;20035;-87
2021/08/14 01:37:34;;;;;;;6.10;2.97;;;17.50;69.60;;;;;;5111399;28;20035;-86
2021/08/14 01:40:00;;;;;;;6.53;2.65;;;17.50;70.60;;;;;;5093615;28;20084;-85
2021/08/14 01:42:26;;;;;;;7.30;2.85;;;17.50;69.50;;;;;;5093780;28;20039;-85
2021/08/14 01:44:52;;;;;;;8.73;2.70;;;17.50;69.10;;;;;;5093920;28;20024;-85
2021/08/14 01:47:18;;;;;;;6.43;2.60;;;17.40;68.80;;;;;;5093974;28;20031;-85
2021/08/14 01:49:44;;;;;;;6.85;3.00;;;17.30;68.60;;;;;;5112975;28;20051;-85
2021/08/14 01:52:12;;;;;;;8.65;2.95;;;17.30;69.30;;;;;;5093497;28;20112;-85
2021/08/14 01:54:39;;;;;;;8.13;2.80;;;17.30;70.00;;;;;;5111644;28;20023;-85
2021/08/14 01:57:05;;;;;;;8.75;2.30;;;17.20;69.60;;;;;;5093565;28;20391;-85
2021/08/14 01:59:32;;;;;;;7.50;2.78;;;17.10;68.90;;;;;;5093822;28;20035;-85
2021/08/14 02:01:58;;;;;;;6.88;2.97;;;17.00;69.00;;;;;;5093872;28;20092;-85
2021/08/14 02:04:24;;;;;;;9.50;2.67;;;17.00;69.70;;;;;;5112659;28;20057;-86
2021/08/14 02:06:49;;;;;;;7.18;2.65;;;17.00;70.90;;;;;;5112198;28;20032;-85
2021/08/14 02:09:15;;;;;;;8.63;3.28;;;17.00;71.20;;;;;;5093174;28;20023;-86
2021/08/14 02:11:41;;;;;;;8.80;2.65;;;17.20;72.70;;;;;;5093458;28;20769;-86
2021/08/14 02:14:06;;;;;;;7.00;3.03;;;17.20;70.90;;;;;;5112240;28;20091;-87
2021/08/14 02:16:33;;;;;;;6.90;2.63;;;17.10;70.70;;;;;;5094288;28;20078;-87
2021/08/14 02:18:59;;;;;;;10.57;3.05;;;17.10;71.10;;;;;;5112202;28;20034;-87
2021/08/14 02:21:26;;;;;;;6.00;2.70;;;17.10;72.00;;;;;;5093316;28;20030;-85
2021/08/14 02:23:52;;;;;;;7.55;2.83;;;17.20;72.70;;;;;;5092568;28;20437;-86
2021/08/14 02:26:18;;;;;;;6.13;2.50;;;17.20;71.80;;;;;;5093656;28;20568;-86
2021/08/14 02:28:43;;;;;;;7.30;2.92;;;17.10;71.40;;;;;;5112349;28;20027;-86
2021/08/14 02:31:10;;;;;;;8.98;2.58;;;17.00;71.30;;;;;;5112054;28;20032;-86
2021/08/14 02:33:35;;;;;;;8.40;2.80;;;17.00;71.30;;;;;;5111961;28;20031;-86
2021/08/14 02:36:02;;;;;;;9.05;3.08;;;17.00;73.10;;;;;;5093144;28;20119;-86
2021/08/14 02:38:28;;;;;;;5.47;2.25;;;16.90;72.30;;;;;;5093165;28;20027;-87
2021/08/14 02:40:54;;;;;;;5.78;2.60;;;17.00;72.10;;;;;;5093734;28;20031;-86
2021/08/14 02:43:19;;;;;;;6.90;3.00;;;16.90;72.60;;;;;;5112157;28;20027;-86
2021/08/14 02:45:45;;;;;;;5.75;2.63;;;17.00;72.10;;;;;;5112161;28;20091;-87
2021/08/14 02:48:12;;;;;;;5.57;2.30;;;17.00;71.50;;;;;;5093545;28;20027;-87
2021/08/14 02:50:39;;;;;;;6.65;2.40;;;16.90;70.90;;;;;;5093210;28;20023;-86
2021/08/14 02:53:04;;;;;;;7.65;2.88;;;16.80;71.00;;;;;;5093350;28;20119;-87
2021/08/14 02:55:30;;;;;;;10.18;2.97;;;16.70;71.40;;;;;;5094306;28;20115;-86
2021/08/14 02:57:56;;;;;;;5.22;2.72;;;16.70;71.20;;;;;;5093018;28;20084;-86
2021/08/14 03:00:21;;;;;;;6.28;2.60;;;16.70;71.30;;;;;;5092701;28;20028;-87
2021/08/14 03:02:47;;;;;;;6.20;2.67;;;16.60;71.60;;;;;;5093016;28;20028;-87
2021/08/14 03:05:13;;;;;;;6.95;3.10;;;16.70;71.70;;;;;;5094130;28;20028;-87
2021/08/14 03:07:38;;;;;;;7.65;2.90;;;16.60;71.40;;;;;;5097558;28;20410;-86
2021/08/14 03:10:05;;;;;;;5.65;2.30;;;16.60;72.30;;;;;;5096629;28;20032;-86
2021/08/14 03:12:31;;;;;;;7.07;2.78;;;16.60;71.60;;;;;;5096712;28;20331;-86
2021/08/14 03:14:56;;;;;;;8.57;3.13;;;16.50;71.70;;;;;;5115517;28;20020;-86
2021/08/14 03:17:22;;;;;;;7.60;2.50;;;16.50;72.60;;;;;;5096923;28;20039;-87
2021/08/14 03:19:48;;;;;;;7.88;2.67;;;16.40;72.20;;;;;;5097694;28;20031;-86
2021/08/14 03:22:13;;;;;;;6.85;2.80;;;16.40;72.70;;;;;;5096584;28;20118;-85
2021/08/14 03:24:39;;;;;;;6.18;2.47;;;16.50;73.20;;;;;;5096330;28;20035;-86
2021/08/14 03:27:06;;;;;;;7.32;2.92;;;16.40;72.80;;;;;;5096360;28;20440;-86
2021/08/14 03:29:32;;;;;;;6.10;2.45;;;16.40;73.10;;;;;;5114983;28;20072;-86
2021/08/14 03:31:58;;;;;;;8.48;2.60;;;16.40;72.90;;;;;;5115104;28;20027;-86
2021/08/14 03:34:24;;;;;;;6.32;2.55;;;16.40;73.70;;;;;;5097189;28;20548;-86
2021/08/14 03:36:50;;;;;;;7.85;2.70;;;16.40;72.90;;;;;;5114557;28;20044;-86
2021/08/14 03:39:16;;;;;;;4.40;2.35;;;16.30;73.30;;;;;;5096170;28;20020;-85
2021/08/14 03:41:42;;;;;;;5.63;2.63;;;16.20;72.20;;;;;;5096078;28;20024;-87
2021/08/14 03:44:08;;;;;;;7.90;2.97;;;16.20;72.70;;;;;;5096528;28;20369;-85
2021/08/14 03:46:33;;;;;;;6.78;2.80;;;16.20;73.40;;;;;;5115282;28;20027;-85
2021/08/14 03:48:59;;;;;;;6.95;2.83;;;16.20;73.70;;;;;;5095911;28;20114;-85
2021/08/14 03:51:25;;;;;;;5.47;2.40;;;16.20;73.60;;;;;;5095835;28;20024;-85
2021/08/14 03:53:50;;;;;;;5.55;2.35;;;16.20;74.10;;;;;;5114670;28;20387;-85
2021/08/14 03:56:16;;;;;;;8.45;2.90;;;16.20;74.70;;;;;;5114518;28;20036;-85
2021/08/14 03:58:41;;;;;;;8.75;2.67;;;16.20;75.70;;;;;;5114918;28;20031;-85
2021/08/14 04:01:07;;;;;;;6.45;2.70;;;16.20;75.40;;;;;;5095996;28;20077;-85
2021/08/14 04:03:33;;;;;;;7.25;2.72;;;16.10;75.40;;;;;;5113354;28;20517;-85
2021/08/14 04:05:59;;;;;;;8.02;2.75;;;16.10;75.00;;;;;;5113471;28;20019;-84
2021/08/14 04:08:25;;;;;;;9.23;2.85;;;16.00;75.20;;;;;;5095287;28;20031;-85
2021/08/14 04:10:51;;;;;;;5.57;2.92;;;16.00;76.90;;;;;;5113797;28;20064;-85
2021/08/14 04:13:17;;;;;;;8.43;3.30;;;16.00;76.50;;;;;;5095376;28;20028;-86
2021/08/14 04:15:42;;;;;;;6.13;2.90;;;16.10;75.50;;;;;;5094930;28;20027;-85
2021/08/14 04:18:08;;;;;;;8.27;3.28;;;16.00;75.30;;;;;;5094638;28;20039;-85
2021/08/14 04:20:34;;;;;;;6.95;2.45;;;16.10;74.80;;;;;;5113237;28;20393;-85
2021/08/14 04:23:00;;;;;;;7.90;2.78;;;16.20;76.20;;;;;;5113791;28;20065;-85
2021/08/14 04:25:25;;;;;;;8.27;2.90;;;16.10;74.80;;;;;;5113668;28;20016;-85
2021/08/14 04:27:51;;;;;;;7.80;3.30;;;16.10;75.80;;;;;;5094601;28;20543;-85
2021/08/14 04:30:17;;;;;;;6.43;3.25;;;16.10;75.20;;;;;;5095289;28;20441;-85
2021/08/14 04:32:43;;;;;;;6.90;2.90;;;16.10;75.00;;;;;;5113110;28;20490;-85
2021/08/14 04:35:11;;;;;;;7.72;3.30;;;16.10;75.10;;;;;;5113062;28;20073;-85
2021/08/14 04:37:37;;;;;;;7.15;3.30;;;16.10;76.90;;;;;;5095685;28;20036;-88
2021/08/14 04:40:04;;;;;;;7.15;3.05;;;16.00;77.20;;;;;;5094728;28;20030;-85
2021/08/14 04:42:30;;;;;;;7.70;3.40;;;15.90;75.90;;;;;;5112991;28;20020;-86
2021/08/14 04:44:55;;;;;;;5.90;2.72;;;15.90;75.80;;;;;;5094853;28;20031;-86
2021/08/14 04:47:21;;;;;;;5.05;2.70;;;15.90;76.30;;;;;;5094617;28;20127;-88
2021/08/14 04:49:47;;;;;;;6.22;2.72;;;16.00;76.50;;;;;;5095206;28;20059;-86
2021/08/14 04:52:13;;;;;;;7.47;2.92;;;15.90;75.90;;;;;;5094266;28;20032;-86
2021/08/14 04:54:39;;;;;;;6.63;2.67;;;16.00;75.80;;;;;;5107122;28;20020;-86
2021/08/14 04:57:05;;;;;;;6.25;2.78;;;15.90;76.30;;;;;;5110397;28;20039;-86
2021/08/14 04:59:31;;;;;;;6.00;2.90;;;15.90;75.70;;;;;;5093038;28;20015;-86
2021/08/14 05:01:57;;;;;;;4.90;2.72;;;15.80;76.60;;;;;;5112465;28;20028;-86
2021/08/14 05:04:23;;;;;;;6.97;2.75;;;15.80;75.90;;;;;;5094972;28;20043;-85
2021/08/14 05:06:49;;;;;;;4.65;2.55;;;15.80;76.10;;;;;;5094627;28;20563;-85
2021/08/14 05:09:15;;;;;;;10.02;3.30;;;15.80;75.70;;;;;;5094399;28;20500;-86
2021/08/14 05:11:41;;;;;;;6.30;2.70;;;15.80;75.70;;;;;;5112623;28;20022;-85
2021/08/14 05:14:06;;;;;;;6.50;2.97;;;15.80;76.10;;;;;;5094216;28;20028;-86
2021/08/14 05:16:34;;;;;;;5.55;2.83;;;15.90;75.70;;;;;;5094732;28;20480;-86
2021/08/14 05:18:59;;;;;;;8.38;3.05;;;15.80;75.60;;;;;;5093603;28;20024;-84
2021/08/14 05:21:25;;;;;;;7.22;3.10;;;15.90;76.10;;;;;;5093804;28;20172;-84
2021/08/14 05:23:51;;;;;;;6.00;2.75;;;15.90;75.80;;;;;;5112318;28;20028;-85
2021/08/14 05:26:17;;;;;;;7.55;3.10;;;16.00;76.50;;;;;;5093874;28;20586;-84
2021/08/14 05:28:43;;;;;;;5.70;2.75;;;15.90;75.70;;;;;;5112060;27;20020;-84
2021/08/14 05:31:08;;;;;;;7.38;2.92;;;16.00;76.50;;;;;;5093114;28;20126;-84
2021/08/14 05:33:34;;;;;;;5.93;3.22;;;15.90;75.90;;;;;;5112392;28;20069;-84
2021/08/14 05:35:59;;;;;;;6.32;2.90;;;15.90;76.50;;;;;;5111969;28;20110;-84
2021/08/14 05:38:25;;;;;;;8.55;3.00;;;15.90;75.80;;;;;;5093724;28;20434;-85
2021/08/14 05:40:51;;;;;;;6.07;2.60;;;15.90;75.70;;;;;;5112167;28;20026;-84
2021/08/14 05:43:16;;;;;;;8.38;2.97;;;16.00;75.40;;;;;;5094046;28;20024;-84
2021/08/14 05:45:42;;;;;;;7.60;2.95;;;16.10;76.00;;;;;;5111541;28;20304;-84
2021/08/14 05:48:08;;;;;;;6.00;2.72;;;16.10;75.40;;;;;;5093874;28;20379;-84
2021/08/14 05:50:34;;;;;;;6.30;3.10;;;16.10;75.40;;;;;;5093211;28;20110;-84
2021/08/14 05:52:59;;;;;;;7.68;3.00;;;16.20;76.30;;;;;;5093601;28;20049;-86
2021/08/14 05:55:25;;;;;;;5.70;2.63;;;16.20;75.80;;;;;;5111930;28;20484;-86
2021/08/14 05:57:53;;;;;;;7.55;2.95;;;16.20;75.30;;;;;;5093044;28;20085;-86
2021/08/14 06:00:20;;;;;;;8.23;2.65;;;16.20;75.40;;;;;;5092633;28;20184;-85
2021/08/14 06:02:45;;;;;;;6.43;2.33;;;16.20;75.40;;;;;;5093461;28;20106;-86
2021/08/14 06:05:11;;;;;;;5.82;2.42;;;16.20;75.80;;;;;;5093660;28;20118;-86
2021/08/14 06:07:37;;;;;;;5.95;2.75;;;16.20;75.40;;;;;;5094087;28;20028;-86
2021/08/14 06:10:06;;;;;;;8.20;2.70;;;16.30;75.40;;;;;;5111209;28;20023;-87
2021/08/14 06:12:32;;;;;;;7.20;2.75;;;16.40;75.60;;;;;;5094874;28;20032;-87
2021/08/14 06:14:57;;;;;;;7.25;2.55;;;16.40;75.40;;;;;;5111367;28;20114;-89
2021/08/14 06:17:23;;;;;;;5.03;2.70;;;16.50;75.50;;;;;;5092719;28;20052;-88
2021/08/14 06:19:49;;;;;;;7.50;2.47;;;16.60;75.10;;;;;;5094710;28;20020;-89
2021/08/14 06:22:15;;;;;;;5.00;2.60;;;16.60;75.00;;;;;;5093590;28;20047;-88
2021/08/14 06:24:41;;;;;;;5.63;2.70;;;16.70;75.10;;;;;;5093377;28;20096;-89
2021/08/14 06:27:07;;;;;;;7.75;2.80;;;16.70;74.80;;;;;;5092767;28;20020;-88
2021/08/14 06:29:32;;;;;;;5.88;2.60;;;16.80;74.70;;;;;;5092773;28;20081;-88
2021/08/14 06:31:58;;;;;;;7.57;2.83;;;16.80;74.60;;;;;;5093029;28;20051;-86
2021/08/14 06:34:26;;;;;;;4.70;2.10;;;16.80;74.70;;;;;;5111427;28;20032;-86
2021/08/14 06:36:51;;;;;;;5.60;2.50;;;16.90;74.50;;;;;;5111034;28;20042;-86
2021/08/14 06:39:17;;;;;;;5.50;2.38;;;17.00;74.60;;;;;;5110851;28;20134;-87
2021/08/14 06:41:43;;;;;;;6.68;2.75;;;17.10;74.20;;;;;;5114391;28;20051;-87
2021/08/14 06:44:09;;;;;;;6.55;2.42;;;17.00;74.00;;;;;;5097522;28;20024;-89
2021/08/14 06:46:35;;;;;;;6.90;2.55;;;17.10;74.30;;;;;;5098356;28;20027;-88
2021/08/14 06:49:02;;;;;;;6.50;2.78;;;17.20;74.10;;;;;;5097440;28;20066;-88
2021/08/14 06:51:31;;;;;;;5.18;2.50;;;17.20;74.10;;;;;;5093167;28;20451;-87
2021/08/14 06:53:58;;;;;;;4.63;2.20;;;17.30;74.10;;;;;;5097196;28;20077;-87
2021/08/14 06:56:24;;;;;;;4.70;2.50;;;17.30;73.80;;;;;;5084381;28;20048;-88
2021/08/14 06:58:49;;;;;;;6.50;2.30;;;17.30;73.80;;;;;;5095864;28;20480;-88
2021/08/14 07:01:15;;;;;;;7.40;2.45;;;17.50;74.20;;;;;;5097620;28;20557;-87
2021/08/14 07:03:40;;;;;;;5.53;2.25;;;17.50;74.00;;;;;;5115307;28;20027;-88
2021/08/14 07:06:06;;;;;;;4.30;2.30;;;17.60;73.70;;;;;;5096782;28;20023;-87
2021/08/14 07:08:32;;;;;;;7.10;2.50;;;17.60;74.00;;;;;;5091060;28;20601;-87
2021/08/14 07:10:57;;;;;;;4.95;2.00;;;17.60;73.90;;;;;;5097023;28;20400;-87
2021/08/14 07:13:23;;;;;;;3.75;2.05;;;17.70;73.70;;;;;;5096768;28;20024;-86
2021/08/14 07:15:49;;;;;;;5.30;2.30;;;17.70;73.80;;;;;;5094203;28;20059;-86
2021/08/14 07:18:15;;;;;;;8.88;2.40;;;17.70;73.60;;;;;;5097395;28;20135;-85
2021/08/14 07:20:41;;;;;;;9.07;2.60;;;17.80;73.90;;;;;;5097807;28;20111;-88
2021/08/14 07:23:06;;;;;;;7.20;2.13;;;17.80;73.60;;;;;;5097605;28;20024;-88
2021/08/14 07:25:32;;;;;;;4.97;2.08;;;17.90;73.50;;;;;;5086477;28;20024;-89
2021/08/14 07:27:58;;;;;;;7.88;2.50;;;18.00;73.50;;;;;;5091191;28;20122;-89
2021/08/14 07:30:23;;;;;;;5.53;2.20;;;18.00;73.40;;;;;;5112125;28;20031;-89
2021/08/14 07:32:49;;;;;;;5.07;2.17;;;18.10;73.40;;;;;;5096643;28;20388;-89
2021/08/14 07:35:14;;;;;;;4.85;2.10;;;18.20;73.20;;;;;;5097779;28;20020;-89
2021/08/14 07:37:48;;;;;;;5.50;2.13;;;18.20;73.00;;;;;;5097405;28;20578;-88
2021/08/14 07:40:25;;;;;;;7.05;2.05;;;18.20;72.90;;;;;;5096827;28;20027;-88
2021/08/14 07:42:55;;;;;;;6.28;2.45;;;18.20;72.80;;;;;;5096876;28;20033;-87
2021/08/14 07:45:21;;;;;;;5.85;2.17;;;18.20;73.20;;;;;;5096901;28;20073;-90
2021/08/14 07:47:48;;;;;;;4.07;2.20;;;18.30;73.00;;;;;;5097214;28;20011;-87
2021/08/14 07:50:25;;;;;;;4.78;2.25;;;18.40;73.30;;;;;;5097269;28;20054;-87
2021/08/14 07:52:52;;;;;;;5.60;2.70;;;18.40;73.30;;;;;;5076381;28;20043;-88
2021/08/14 07:55:18;;;;;;;8.02;2.75;;;18.50;72.70;;;;;;5093097;28;20043;-87
2021/08/14 07:57:44;;;;;;;6.10;1.95;;;18.50;72.80;;;;;;5096474;28;20035;-87
2021/08/14 08:00:16;;;;;;;5.55;2.38;;;18.50;73.50;;;;;;5114436;28;20058;-87
2021/08/14 08:02:42;;;;;;;6.00;2.47;;;18.60;72.60;;;;;;5096991;28;20023;-90
2021/08/14 08:05:10;;;;;;;4.78;2.00;;;18.70;72.80;;;;;;5097802;28;20559;-89
2021/08/14 08:07:45;;;;;;;12.75;3.22;;;18.70;72.80;;;;;;5097022;28;20023;-89
2021/08/14 08:10:13;;;;;;;8.55;2.55;;;18.80;72.60;;;;;;5096912;28;20027;-88
2021/08/14 08:12:39;;;;;;;6.55;2.20;;;18.90;72.40;;;;;;5092085;28;20039;-87
2021/08/14 08:15:06;;;;;;;6.68;2.15;;;18.90;73.20;;;;;;5096396;28;20015;-87
2021/08/14 08:17:32;;;;;;;5.75;2.20;;;18.90;72.00;;;;;;5096594;28;20052;-87
2021/08/14 08:19:58;;;;;;;6.03;2.55;;;19.00;72.30;;;;;;5096624;28;20088;-87
2021/08/14 08:22:23;;;;;;;6.93;2.90;;;19.10;72.30;;;;;;5096655;28;20031;-88
2021/08/14 08:24:49;;;;;;;7.82;3.10;;;19.10;72.00;;;;;;5095861;28;20662;-87
2021/08/14 08:27:15;;;;;;;6.88;3.30;;;19.20;71.90;;;;;;5095187;28;20031;-86
2021/08/14 08:29:40;;;;;;;8.52;3.40;;;19.20;71.70;;;;;;5095447;28;20027;-87
2021/08/14 08:32:07;;;;;;;7.78;3.15;;;19.30;72.10;;;;;;5096442;28;20031;-86
2021/08/14 08:34:33;;;;;;;8.73;3.47;;;19.30;71.90;;;;;;5094814;28;20046;-84
2021/08/14 08:36:59;;;;;;;6.93;2.97;;;19.40;71.80;;;;;;5113197;28;20070;-79
2021/08/14 08:39:25;;;;;;;5.57;2.83;;;19.40;73.10;;;;;;5112557;28;20550;-78
2021/08/14 08:41:51;;;;;;;4.82;2.55;;;19.50;71.90;;;;;;5116976;28;20116;-76
2021/08/14 08:44:17;;;;;;;10.85;2.50;;;19.60;73.40;;;;;;5113762;28;20508;-79
2021/08/14 08:46:46;;;;;;;5.47;2.72;;;19.70;72.10;;;;;;5114262;28;20028;-82
2021/08/14 08:49:13;;;;;;;4.03;2.13;;;19.70;71.50;;;;;;5093578;28;20476;-81
2021/08/14 08:51:39;;;;;;;5.78;2.60;;;19.70;71.30;;;;;;5113652;28;20078;-81
2021/08/14 08:54:05;;;;;;;5.68;2.03;;;19.70;71.40;;;;;;5112978;28;20055;-81
2021/08/14 08:56:31;;;;;;;5.90;2.20;;;19.80;71.50;;;;;;5113975;28;20028;-82
2021/08/14 08:58:57;;;;;;;4.93;2.50;;;19.80;71.20;;;;;;5113771;28;20027;-86
2021/08/14 09:01:22;;;;;;;6.38;2.85;;;19.80;71.30;;;;;;5104000;27;20031;-83
2021/08/14 09:03:48;;;;;;;10.52;4.25;;;19.90;71.00;;;;;;5095219;27;20111;-85
2021/08/14 09:06:13;;;;;;;8.70;3.95;;;20.00;71.00;;;;;;5109497;28;20085;-79
2021/08/14 09:08:39;;;;;;;5.32;2.78;;;20.00;71.10;;;;;;5110966;28;20063;-81
2021/08/14 09:11:15;;;;;;;4.40;2.70;;;20.00;71.10;;;;;;5110919;28;20033;-78
2021/08/14 09:14:02;;;;;;;5.65;2.78;;;20.10;71.00;;;;;;5112591;28;20019;-83
2021/08/14 09:16:28;;;;;;;7.20;3.00;;;20.20;71.20;;;;;;5110614;27;20558;-81
2021/08/14 09:18:54;;;;;;;6.32;2.63;;;20.30;70.70;;;;;;5105220;28;20099;-82
2021/08/14 09:21:38;;;;;;;5.55;2.50;;;20.30;70.60;;;;;;5108116;28;20083;-82
2021/08/14 09:24:05;;;;;;;5.18;2.53;;;20.40;70.70;;;;;;5109221;28;20020;-82
2021/08/14 09:26:43;;;;;;;4.65;2.22;;;20.50;70.30;;;;;;5092071;28;20396;-83
2021/08/14 09:29:08;;;;;;;8.85;2.30;;;20.60;70.40;;;;;;5094455;28;20023;-78
2021/08/14 09:31:48;;;;;;;3.97;1.98;;;20.60;70.00;;;;;;5112717;28;20036;-83
2021/08/14 09:34:16;;;;;;;5.82;3.20;;;20.70;69.50;;;;;;5116446;27;20027;-80
2021/08/14 09:36:41;;;;;;;5.20;2.22;;;20.70;69.80;;;;;;5113489;27;20043;-82
2021/08/14 09:39:07;;;;;;;6.03;2.92;;;20.70;69.30;;;;;;5109937;28;20392;-83
2021/08/14 09:41:33;;;;;;;4.72;2.72;;;20.70;70.50;;;;;;5093693;28;20098;-80
2021/08/14 09:43:58;;;;;;;5.07;2.50;;;20.80;69.90;;;;;;5109099;28;20429;-79
2021/08/14 09:46:40;;;;;;;5.38;2.40;;;20.90;69.40;;;;;;5109133;28;20020;-83
2021/08/14 09:49:06;;;;;;;5.80;2.25;;;21.00;69.50;;;;;;5110710;28;20046;-83
2021/08/14 09:51:33;;;;;;;4.80;2.53;;;21.00;68.80;;;;;;5111908;28;20055;-86
2021/08/14 09:54:01;;;;;;;6.07;2.53;;;21.10;69.90;;;;;;5111778;28;20024;-87
2021/08/14 09:56:32;;;;;;;8.02;5.05;;;21.10;69.20;;;;;;5085515;28;20046;-89
2021/08/14 09:58:58;;;;;;;21.92;11.85;;;21.10;69.60;;;;;;5112213;28;20075;-86
2021/08/14 10:01:24;;;;;;;6.38;3.30;;;21.20;68.60;;;;;;5113047;28;20422;-88
2021/08/14 10:03:51;;;;;;;6.15;3.10;;;21.20;68.20;;;;;;5112311;28;20031;-85
2021/08/14 10:06:17;;;;;;;3.72;2.50;;;21.30;67.80;;;;;;5093653;28;20024;-86
2021/08/14 10:08:44;;;;;;;5.88;2.63;;;21.30;66.90;;;;;;5092790;28;20059;-83
2021/08/14 10:11:11;;;;;;;5.55;2.53;;;21.30;67.40;;;;;;5093801;28;20076;-82
2021/08/14 10:13:42;;;;;;;9.50;5.65;;;21.40;67.60;;;;;;5094312;28;20024;-86
2021/08/14 10:16:11;;;;;;;8.00;3.00;;;21.40;67.70;;;;;;5111434;28;20028;-91
2021/08/14 10:18:42;;;;;;;5.13;2.58;;;21.40;67.30;;;;;;5085619;28;20032;-92
2021/08/14 10:21:09;;;;;;;4.63;2.33;;;21.50;67.20;;;;;;5092871;28;20020;-95
2021/08/14 10:23:35;;;;;;;5.90;3.17;;;21.50;66.90;;;;;;5116971;28;20084;-95
2021/08/14 10:26:05;;;;;;;5.68;2.70;;;21.60;67.50;;;;;;5098056;28;20031;-92
2021/08/14 10:28:44;;;;;;;5.30;2.60;;;21.70;66.60;;;;;;5113422;28;20057;-88
2021/08/14 10:31:30;;;;;;;4.60;2.30;;;21.70;66.30;;;;;;5112060;28;20511;-93
2021/08/14 10:34:10;;;;;;;3.80;2.15;;;21.70;65.60;;;;;;5116387;28;20028;-88
2021/08/14 10:36:37;;;;;;;5.93;2.65;;;21.70;65.70;;;;;;5114039;28;20036;-94
2021/08/14 10:39:26;;;;;;;4.78;2.58;;;21.70;66.10;;;;;;5111603;28;20069;-96
2021/08/14 10:41:55;;;;;;;4.93;2.38;;;21.80;66.50;;;;;;5096042;28;20028;-93
2021/08/14 10:44:48;;;;;;;4.55;2.45;;;21.90;65.70;;;;;;5098271;28;20028;-91
2021/08/14 10:47:32;;;;;;;3.83;2.37;;;21.90;66.10;;;;;;5080744;28;20043;-89
2021/08/14 10:49:57;;;;;;;7.63;2.78;;;21.90;65.90;;;;;;5120977;28;20031;-94
2021/08/14 10:52:34;;;;;;;3.63;2.33;;;22.00;65.20;;;;;;5094129;28;20027;-87
2021/08/14 10:55:02;;;;;;;5.30;1.98;;;22.00;65.40;;;;;;5111505;28;20035;-91
2021/08/14 10:57:37;;;;;;;3.65;2.15;;;22.00;64.80;;;;;;5111690;28;20081;-90
2021/08/14 11:00:23;;;;;;;3.92;2.03;;;22.00;65.30;;;;;;5113272;28;20023;-93
2021/08/14 11:02:57;;;;;;;5.90;2.30;;;22.10;65.10;;;;;;5119620;28;20081;-90
2021/08/14 11:05:26;;;;;;;6.30;2.60;;;22.20;65.60;;;;;;5110808;28;20024;-90
2021/08/14 11:07:53;;;;;;;4.55;1.92;;;22.30;64.80;;;;;;5110111;28;20049;-90
2021/08/14 11:10:34;;;;;;;5.43;2.42;;;22.30;64.40;;;;;;5108455;28;20019;-90
2021/08/14 11:12:59;;;;;;;3.45;1.90;;;22.30;65.10;;;;;;5111634;28;20049;-88
2021/08/14 11:15:39;;;;;;;3.83;2.13;;;22.50;65.20;;;;;;5111580;28;20415;-91
2021/08/14 11:18:05;;;;;;;4.72;2.45;;;22.60;63.80;;;;;;5091112;28;20047;-89
2021/08/14 11:20:34;;;;;;;3.22;1.95;;;22.50;63.00;;;;;;5111979;28;20103;-89
2021/08/14 11:23:01;;;;;;;3.67;2.13;;;22.60;63.40;;;;;;5112998;28;20028;-92
2021/08/14 11:25:39;;;;;;;3.78;2.10;;;22.60;63.00;;;;;;5094199;28;20444;-84
2021/08/14 11:28:08;;;;;;;3.50;1.92;;;22.60;63.40;;;;;;5097020;28;20031;-91
2021/08/14 11:30:35;;;;;;;3.10;2.00;;;22.70;62.90;;;;;;5114618;28;20031;-82
2021/08/14 11:33:04;;;;;;;4.07;2.03;;;22.90;63.50;;;;;;5115148;28;20024;-84
2021/08/14 11:35:30;;;;;;;5.20;2.35;;;22.90;62.40;;;;;;5114671;28;20019;-85
2021/08/14 11:38:07;;;;;;;3.13;2.00;;;23.00;61.80;;;;;;5096172;28;20076;-88
2021/08/14 11:40:38;;;;;;;3.60;2.13;;;23.00;61.30;;;;;;5097114;28;20051;-90
2021/08/14 11:43:10;;;;;;;3.20;2.10;;;22.90;60.60;;;;;;5097500;28;20424;-88
2021/08/14 11:45:37;;;;;;;3.75;2.42;;;22.90;60.40;;;;;;5115064;28;20076;-88
2021/08/14 11:48:06;;;;;;;5.43;2.10;;;22.90;60.90;;;;;;5095589;28;20023;-88
2021/08/14 11:50:32;;;;;;;3.75;2.15;;;22.80;60.50;;;;;;5114342;28;20058;-87
2021/08/14 11:52:58;;;;;;;5.82;2.13;;;22.70;60.10;;;;;;5114738;28;20026;-87
2021/08/14 11:55:24;;;;;;;4.10;2.38;;;22.90;60.40;;;;;;5114623;28;20024;-87
2021/08/14 11:57:53;;;;;;;4.07;2.50;;;23.10;59.30;;;;;;5114430;28;20458;-89
2021/08/14 12:00:32;;;;;;;3.22;2.15;;;23.20;60.00;;;;;;5114619;28;20039;-87
2021/08/14 12:03:15;;;;;;;3.47;2.15;;;23.30;60.10;;;;;;5113446;28;20107;-86
2021/08/14 12:05:46;;;;;;;5.47;2.90;;;23.30;60.00;;;;;;5114651;28;20022;-88
2021/08/14 12:08:32;;;;;;;5.45;2.80;;;23.40;58.90;;;;;;5114259;28;20115;-88
2021/08/14 12:10:59;;;;;;;5.60;3.55;;;23.40;59.50;;;;;;5106631;28;20522;-84
2021/08/14 12:13:25;;;;;;;4.32;2.42;;;23.50;57.40;;;;;;5114444;28;20424;-84
2021/08/14 12:15:50;;;;;;;3.42;2.20;;;23.60;57.20;;;;;;5095503;28;20161;-84
2021/08/14 12:18:37;;;;;;;4.60;2.25;;;23.50;57.70;;;;;;5113426;28;20075;-82
2021/08/14 12:21:04;;;;;;;4.25;2.22;;;23.40;58.30;;;;;;5113532;28;20024;-82
2021/08/14 12:23:32;;;;;;;3.22;2.17;;;23.40;57.70;;;;;;5113808;28;20538;-82
2021/08/14 12:25:59;;;;;;;4.18;2.20;;;23.60;56.80;;;;;;5113541;28;20065;-86
2021/08/14 12:28:29;;;;;;;3.35;1.95;;;23.50;56.20;;;;;;5114214;28;20034;-87
2021/08/14 12:31:00;;;;;;;4.30;2.05;;;23.60;56.30;;;;;;5095021;28;20039;-87
2021/08/14 12:33:29;;;;;;;3.45;1.92;;;23.70;55.30;;;;;;5094172;28;20031;-82
2021/08/14 12:36:00;;;;;;;2.95;2.05;;;23.80;55.90;;;;;;5113798;28;20423;-82
2021/08/14 12:38:27;;;;;;;3.83;1.98;;;23.90;54.50;;;;;;5113460;28;20463;-81
2021/08/14 12:40:53;;;;;;;3.78;2.28;;;24.00;54.30;;;;;;5088555;28;20024;-81
2021/08/14 12:43:21;;;;;;;3.83;1.95;;;24.10;50.70;;;;;;5114748;28;20031;-80
2021/08/14 12:45:47;;;;;;;3.78;2.33;;;24.20;51.60;;;;;;5113784;28;20031;-81
2021/08/14 12:48:14;;;;;;;4.20;2.30;;;24.10;52.80;;;;;;5112764;28;20027;-80